KFOA

Flora Municipal Airport

Flora, Illinois, USA
METAR KFOA 200055Z AUTO 18008KT 10SM CLR 02/M03 A3001 RMK AO2 T00201035
Observed Flight Rules
Jan-20 @ 00:55 UTC (28 minutes ago) Visual Flight Rules
Wind Visibility Clouds
180° at 8 knots 10 miles
  • Clear skies
Temperatures Readings
Current 2°C / 36°F
Dewpoint -4°C / 25°F
Humidity 65%
Altimeter 30.01" Hg
Pressure 1016 hPa
Elevation 144
METAR KFOA 200055Z AUTO 18008KT 10SM CLR 02/M03 A3001 RMK AO2 T00201035
Observed Flight Rules
Jan-20 @ 00:55 UTC
(28 minutes ago)
VFR
Wind Visibility
180° at 8 knots 10 miles
Clouds
  • Clear skies
Temperature Dewpoint
2°C / 36°F -4°C / 25°F
Humidity Altimeter Pressure
65% 30.01" Hg 1016 hPa